createdAt,value
2019-02-06T00:00:43.078Z,0.00
2019-02-06T00:01:43.044Z,0.00
2019-02-06T00:02:43.006Z,0.00
2019-02-06T00:03:42.969Z,0.00
2019-02-06T00:04:42.931Z,0.00
2019-02-06T00:05:42.895Z,0.00
2019-02-06T00:06:42.892Z,0.00
2019-02-06T00:07:42.821Z,0.00
2019-02-06T00:08:42.782Z,0.00
2019-02-06T00:09:42.747Z,0.00
2019-02-06T00:10:42.727Z,0.00
2019-02-06T00:11:42.674Z,0.00
2019-02-06T00:12:42.635Z,0.00
2019-02-06T00:13:42.600Z,0.00
2019-02-06T00:14:42.583Z,0.00
2019-02-06T00:15:42.527Z,0.00
2019-02-06T00:16:42.489Z,0.00
2019-02-06T00:17:42.452Z,0.00
2019-02-06T00:18:42.415Z,0.00
2019-02-06T00:19:42.380Z,0.00
2019-02-06T00:20:42.343Z,0.00
2019-02-06T00:21:42.305Z,0.00
2019-02-06T00:22:42.271Z,0.00
2019-02-06T00:23:42.232Z,0.00
2019-02-06T00:24:42.199Z,0.00
2019-02-06T00:25:42.156Z,0.00
2019-02-06T00:26:42.120Z,0.00
2019-02-06T00:27:42.083Z,0.00
2019-02-06T00:28:42.047Z,0.00
2019-02-06T00:29:42.008Z,0.00
2019-02-06T00:30:41.973Z,0.00
2019-02-06T00:31:41.934Z,0.00
2019-02-06T00:32:41.896Z,0.00
2019-02-06T00:33:41.859Z,0.00
2019-02-06T00:34:41.823Z,0.00
2019-02-06T00:35:41.787Z,0.00
2019-02-06T00:36:41.748Z,0.00
2019-02-06T00:37:41.712Z,0.00
2019-02-06T00:38:41.675Z,0.00
2019-02-06T00:39:41.636Z,0.00
2019-02-06T00:40:41.598Z,0.00
2019-02-06T00:41:41.563Z,0.00
2019-02-06T00:42:41.526Z,0.00
2019-02-06T00:43:41.488Z,0.00
2019-02-06T00:44:41.450Z,0.00
2019-02-06T00:45:41.413Z,0.00
2019-02-06T00:46:41.375Z,0.00
2019-02-06T00:47:41.341Z,0.00
2019-02-06T00:48:41.301Z,0.00
2019-02-06T00:49:41.264Z,0.00
2019-02-06T00:50:41.227Z,0.00
2019-02-06T00:51:41.189Z,0.00
2019-02-06T00:52:41.150Z,0.00
2019-02-06T00:53:41.114Z,0.00
2019-02-06T00:54:41.077Z,0.00
2019-02-06T00:55:41.040Z,0.00
2019-02-06T00:56:41.001Z,0.00
2019-02-06T00:57:40.964Z,0.00
2019-02-06T00:58:40.928Z,0.00
2019-02-06T00:59:40.890Z,0.00
2019-02-06T01:00:40.853Z,0.00
2019-02-06T01:01:40.817Z,0.00
2019-02-06T01:02:40.777Z,0.00
2019-02-06T01:03:40.743Z,0.00
2019-02-06T01:04:40.702Z,0.00
2019-02-06T01:05:40.664Z,0.00
2019-02-06T01:06:40.627Z,0.00
2019-02-06T01:07:40.589Z,0.00
2019-02-06T01:08:40.552Z,0.00
2019-02-06T01:09:40.516Z,0.00
2019-02-06T01:10:40.479Z,0.00
2019-02-06T01:11:40.440Z,0.00
2019-02-06T01:12:40.402Z,0.00
2019-02-06T01:13:40.366Z,0.00
2019-02-06T01:14:40.328Z,0.00
2019-02-06T01:15:40.290Z,0.00
2019-02-06T01:16:40.252Z,0.00
2019-02-06T01:17:40.220Z,0.00
2019-02-06T01:18:40.178Z,0.00
2019-02-06T01:19:40.141Z,0.00
2019-02-06T01:20:40.105Z,0.00
2019-02-06T01:21:40.066Z,0.00
2019-02-06T01:22:40.146Z,0.00
2019-02-06T01:23:39.993Z,0.00
2019-02-06T01:24:39.955Z,0.00
2019-02-06T01:25:39.916Z,0.00
2019-02-06T01:26:39.879Z,0.00
2019-02-06T01:27:39.843Z,0.00
2019-02-06T01:28:39.804Z,0.00
2019-02-06T01:29:39.768Z,0.00
2019-02-06T01:30:39.729Z,0.00
2019-02-06T01:31:39.691Z,0.00
2019-02-06T01:32:39.653Z,0.00
2019-02-06T01:33:39.617Z,0.00
2019-02-06T01:34:39.582Z,0.00
2019-02-06T01:35:49.598Z,0.00
2019-02-06T01:36:39.504Z,0.00
2019-02-06T01:37:39.468Z,0.00
2019-02-06T01:38:39.429Z,0.00
2019-02-06T01:39:39.391Z,0.00
2019-02-06T01:40:39.355Z,0.00
2019-02-06T01:41:39.317Z,0.00
2019-02-06T01:42:39.279Z,0.00
2019-02-06T01:43:39.242Z,0.00
2019-02-06T01:44:39.205Z,0.00
2019-02-06T01:45:39.168Z,0.00
2019-02-06T01:46:39.128Z,0.00
2019-02-06T01:47:39.096Z,0.00
2019-02-06T01:48:39.056Z,0.00
2019-02-06T01:49:39.017Z,0.00
2019-02-06T01:50:38.979Z,0.00
2019-02-06T01:51:38.942Z,0.00
2019-02-06T01:52:38.904Z,0.00
2019-02-06T01:53:38.867Z,0.00
2019-02-06T01:54:38.831Z,0.00
2019-02-06T01:55:38.792Z,0.00
2019-02-06T01:56:38.754Z,0.00
2019-02-06T01:57:38.719Z,0.00
2019-02-06T01:58:38.680Z,0.00
2019-02-06T01:59:38.643Z,0.00
2019-02-06T02:00:38.604Z,0.00
2019-02-06T02:01:38.567Z,0.00
2019-02-06T02:02:38.529Z,0.00
2019-02-06T02:03:38.493Z,0.00
2019-02-06T02:04:38.453Z,0.00
2019-02-06T02:05:38.417Z,0.00
2019-02-06T02:06:38.383Z,0.00
2019-02-06T02:07:38.343Z,0.00
2019-02-06T02:08:38.303Z,0.00
2019-02-06T02:09:38.270Z,0.00
2019-02-06T02:10:38.229Z,0.00
2019-02-06T02:11:38.197Z,0.00
2019-02-06T02:12:38.155Z,0.00
2019-02-06T02:13:38.118Z,0.00
2019-02-06T02:14:38.083Z,0.00
2019-02-06T02:15:38.044Z,0.00
2019-02-06T02:16:38.005Z,0.00
2019-02-06T02:17:37.968Z,0.00
2019-02-06T02:18:37.934Z,0.00
2019-02-06T02:19:37.895Z,0.00
2019-02-06T02:20:37.857Z,0.00
2019-02-06T02:21:37.820Z,0.00
2019-02-06T02:22:37.785Z,0.00
2019-02-06T02:23:37.749Z,0.00
2019-02-06T02:24:37.711Z,0.00
2019-02-06T02:25:37.674Z,0.00
2019-02-06T02:26:37.636Z,0.00
2019-02-06T02:27:37.600Z,0.00
2019-02-06T02:28:37.563Z,0.00
2019-02-06T02:29:37.529Z,0.00
2019-02-06T02:30:37.490Z,0.00
2019-02-06T02:31:37.458Z,0.00
2019-02-06T02:32:37.415Z,0.00
2019-02-06T02:33:37.393Z,0.00
2019-02-06T02:34:37.343Z,0.00
2019-02-06T02:35:37.309Z,0.00
2019-02-06T02:36:37.269Z,0.00
2019-02-06T02:37:37.234Z,0.00
2019-02-06T02:38:37.200Z,0.00
2019-02-06T02:39:37.162Z,0.00
2019-02-06T02:40:37.127Z,0.00
2019-02-06T02:41:37.088Z,0.00
2019-02-06T02:42:37.052Z,0.00
2019-02-06T02:43:37.016Z,0.00
2019-02-06T02:44:36.980Z,0.00
2019-02-06T02:45:36.945Z,0.00
2019-02-06T02:46:36.908Z,0.00
2019-02-06T02:47:36.872Z,0.00
2019-02-06T02:48:36.835Z,0.00
2019-02-06T02:49:36.801Z,0.00
2019-02-06T02:50:36.761Z,0.00
2019-02-06T02:51:36.728Z,0.00
2019-02-06T02:52:36.731Z,0.00
2019-02-06T02:53:36.652Z,0.00
2019-02-06T02:54:36.623Z,0.00
2019-02-06T02:55:36.583Z,0.00
2019-02-06T02:56:36.544Z,0.00
2019-02-06T02:57:36.508Z,0.00
2019-02-06T02:58:36.472Z,0.00
2019-02-06T02:59:36.436Z,0.00
2019-02-06T03:00:36.401Z,0.00
2019-02-06T03:01:36.364Z,0.00
2019-02-06T03:02:36.328Z,0.00
2019-02-06T03:03:36.293Z,0.00
2019-02-06T03:04:36.255Z,0.00
2019-02-06T03:05:36.222Z,0.00
2019-02-06T03:06:36.185Z,0.00
2019-02-06T03:07:36.149Z,0.00
2019-02-06T03:08:36.112Z,0.00
2019-02-06T03:09:36.076Z,0.00
2019-02-06T03:10:36.040Z,0.00
2019-02-06T03:11:36.003Z,0.00
2019-02-06T03:12:35.968Z,0.00
2019-02-06T03:13:35.930Z,0.00
2019-02-06T03:14:35.907Z,0.00
2019-02-06T03:15:35.859Z,0.00
2019-02-06T03:16:35.824Z,0.00
2019-02-06T03:17:35.790Z,0.00
2019-02-06T03:18:35.752Z,0.00
2019-02-06T03:19:35.715Z,0.00
2019-02-06T03:20:35.679Z,0.00
2019-02-06T03:21:35.644Z,0.00
2019-02-06T03:22:35.607Z,0.00
2019-02-06T03:23:35.572Z,0.00
2019-02-06T03:24:35.534Z,0.00
2019-02-06T03:25:35.499Z,0.00
2019-02-06T03:26:35.465Z,0.00
2019-02-06T03:27:35.427Z,0.00
2019-02-06T03:28:35.391Z,0.00
2019-02-06T03:29:35.369Z,0.00
2019-02-06T03:30:35.362Z,0.00
2019-02-06T03:31:35.294Z,0.00
2019-02-06T03:32:35.331Z,0.00
2019-02-06T03:33:35.213Z,0.00
2019-02-06T03:34:35.175Z,0.00
2019-02-06T03:35:35.143Z,0.00
2019-02-06T03:36:40.514Z,0.00
2019-02-06T03:37:35.073Z,0.00
2019-02-06T03:38:35.035Z,0.00
2019-02-06T03:39:34.997Z,0.00
2019-02-06T03:40:34.962Z,0.00
2019-02-06T03:41:34.929Z,0.00
2019-02-06T03:42:34.890Z,0.00
2019-02-06T03:43:34.855Z,0.00
2019-02-06T03:44:34.818Z,0.00
2019-02-06T03:45:34.781Z,0.00
2019-02-06T03:46:34.746Z,0.00
2019-02-06T03:47:34.711Z,0.00
2019-02-06T03:48:34.675Z,0.00
2019-02-06T03:49:34.638Z,0.00
2019-02-06T03:50:34.603Z,0.00
2019-02-06T03:51:34.568Z,0.00
2019-02-06T03:52:34.530Z,0.00
2019-02-06T03:53:34.495Z,0.00
2019-02-06T03:54:34.462Z,0.00
2019-02-06T03:55:34.425Z,0.00
2019-02-06T03:56:34.388Z,0.00
2019-02-06T03:57:34.353Z,0.00
2019-02-06T03:58:34.317Z,0.00
2019-02-06T03:59:34.285Z,0.00
2019-02-06T04:00:34.247Z,0.00
2019-02-06T04:01:34.208Z,0.00
2019-02-06T04:02:34.172Z,0.00
2019-02-06T04:03:34.137Z,0.00
2019-02-06T04:04:34.100Z,0.00
2019-02-06T04:05:34.069Z,0.00
2019-02-06T04:06:34.030Z,0.00
2019-02-06T04:07:33.995Z,0.00
2019-02-06T04:08:33.956Z,0.00
2019-02-06T04:09:33.922Z,0.00
2019-02-06T04:10:33.885Z,0.00
2019-02-06T04:11:33.918Z,0.00
2019-02-06T04:12:33.816Z,0.00
2019-02-06T04:13:33.780Z,0.00
2019-02-06T04:14:33.744Z,0.00
2019-02-06T04:15:33.707Z,0.00
2019-02-06T04:16:33.670Z,0.00
2019-02-06T04:17:33.639Z,0.00
2019-02-06T04:18:33.601Z,0.00
2019-02-06T04:19:33.565Z,0.00
2019-02-06T04:20:33.528Z,0.00
2019-02-06T04:21:33.493Z,0.00
2019-02-06T04:22:33.456Z,0.00
2019-02-06T04:23:33.422Z,0.00
2019-02-06T04:24:33.386Z,0.00
2019-02-06T04:25:33.350Z,0.00
2019-02-06T04:26:33.318Z,0.00
2019-02-06T04:27:33.280Z,0.00
2019-02-06T04:28:33.243Z,0.00
2019-02-06T04:29:33.209Z,0.00
2019-02-06T04:30:33.172Z,0.00
2019-02-06T04:31:33.147Z,0.00
2019-02-06T04:32:33.099Z,0.00
2019-02-06T04:33:33.065Z,0.00
2019-02-06T04:34:33.030Z,0.00
2019-02-06T04:35:32.993Z,0.00
2019-02-06T04:36:32.958Z,0.00
2019-02-06T04:37:32.922Z,0.00
2019-02-06T04:38:32.887Z,0.00
2019-02-06T04:39:32.851Z,0.00
2019-02-06T04:40:32.821Z,0.00
2019-02-06T04:41:32.779Z,0.00
2019-02-06T04:42:32.744Z,0.00
2019-02-06T04:43:32.709Z,0.00
2019-02-06T04:44:32.674Z,0.00
2019-02-06T04:45:32.637Z,0.00
2019-02-06T04:46:32.604Z,0.00
2019-02-06T04:47:32.566Z,0.00
2019-02-06T04:48:32.529Z,0.00
2019-02-06T04:49:32.499Z,0.00
2019-02-06T04:50:32.458Z,0.00
2019-02-06T04:51:32.424Z,0.00
2019-02-06T04:52:32.391Z,0.00
2019-02-06T04:53:32.351Z,0.00
2019-02-06T04:54:32.314Z,0.00
2019-02-06T04:55:32.281Z,0.00
2019-02-06T04:56:32.243Z,0.00
2019-02-06T04:57:32.209Z,0.00
2019-02-06T04:58:32.173Z,0.00
2019-02-06T04:59:32.193Z,0.00
2019-02-06T05:00:32.101Z,0.00
2019-02-06T05:01:32.068Z,0.00
2019-02-06T05:02:32.028Z,0.00
2019-02-06T05:03:31.994Z,0.00
2019-02-06T05:04:31.957Z,0.00
2019-02-06T05:05:31.922Z,0.00
2019-02-06T05:06:31.886Z,0.00
2019-02-06T05:07:31.850Z,0.00
2019-02-06T05:08:31.814Z,0.00
2019-02-06T05:09:31.777Z,0.00
2019-02-06T05:10:31.742Z,0.00
2019-02-06T05:11:31.707Z,0.00
2019-02-06T05:12:31.670Z,0.00
2019-02-06T05:13:31.634Z,0.00
2019-02-06T05:14:31.598Z,0.00
2019-02-06T05:15:31.564Z,0.00
2019-02-06T05:16:31.527Z,0.00
2019-02-06T05:17:31.490Z,0.00
2019-02-06T05:18:31.454Z,0.00
2019-02-06T05:19:31.425Z,0.00
2019-02-06T05:20:31.382Z,0.00
2019-02-06T05:21:31.347Z,0.00
2019-02-06T05:22:31.314Z,0.00
2019-02-06T05:23:31.276Z,0.00
2019-02-06T05:24:31.241Z,0.00
2019-02-06T05:25:31.203Z,0.00
2019-02-06T05:26:31.167Z,0.00
2019-02-06T05:27:31.132Z,0.00
2019-02-06T05:28:31.097Z,0.00
2019-02-06T05:29:31.059Z,0.00
2019-02-06T05:30:31.024Z,0.00
2019-02-06T05:31:30.989Z,0.00
2019-02-06T05:32:30.952Z,0.00
2019-02-06T05:33:30.915Z,0.00
2019-02-06T05:34:30.880Z,0.00
2019-02-06T05:35:30.845Z,0.00
2019-02-06T05:36:30.809Z,0.00
2019-02-06T05:37:32.354Z,0.00
2019-02-06T05:38:30.739Z,0.00
2019-02-06T05:39:30.700Z,0.00
2019-02-06T05:40:30.665Z,0.00
2019-02-06T05:41:30.628Z,0.00
2019-02-06T05:42:30.592Z,0.00
2019-02-06T05:43:30.558Z,0.00
2019-02-06T05:44:30.519Z,0.00
2019-02-06T05:45:30.486Z,0.00
2019-02-06T05:46:30.449Z,0.00
2019-02-06T05:47:30.437Z,0.00
2019-02-06T05:48:30.376Z,0.00
2019-02-06T05:49:30.339Z,0.00
2019-02-06T05:50:30.302Z,0.00
2019-02-06T05:51:30.266Z,0.00
2019-02-06T05:52:30.234Z,0.00
2019-02-06T05:53:30.193Z,0.00
2019-02-06T05:54:30.159Z,0.00
2019-02-06T05:55:30.122Z,0.00
2019-02-06T05:56:30.084Z,0.00
2019-02-06T05:57:30.051Z,0.00
2019-02-06T05:58:30.012Z,0.00
2019-02-06T05:59:29.976Z,0.00
2019-02-06T06:00:29.940Z,0.00
2019-02-06T06:01:29.902Z,0.00
2019-02-06T06:02:29.868Z,0.00
2019-02-06T06:03:29.832Z,0.00
2019-02-06T06:04:29.793Z,0.00
2019-02-06T06:05:29.757Z,0.00
2019-02-06T06:06:29.724Z,0.00
2019-02-06T06:07:29.686Z,4.00
2019-02-06T06:08:29.647Z,0.00
2019-02-06T06:09:29.615Z,0.00
2019-02-06T06:10:29.577Z,4.00
2019-02-06T06:11:29.547Z,4.00
2019-02-06T06:12:29.503Z,0.00
2019-02-06T06:13:29.517Z,4.00
2019-02-06T06:14:29.429Z,4.00
2019-02-06T06:15:29.391Z,4.00
2019-02-06T06:16:29.355Z,8.00
2019-02-06T06:17:29.319Z,8.00
2019-02-06T06:18:29.282Z,8.00
2019-02-06T06:19:29.246Z,8.00
2019-02-06T06:20:29.209Z,12.00
2019-02-06T06:21:29.172Z,12.00
2019-02-06T06:22:29.136Z,12.00
2019-02-06T06:23:29.099Z,16.00
2019-02-06T06:24:29.065Z,20.00
2019-02-06T06:25:29.033Z,20.00
2019-02-06T06:26:28.990Z,28.00
2019-02-06T06:27:28.983Z,32.00
2019-02-06T06:28:29.218Z,40.00
2019-02-06T06:29:28.891Z,48.00
2019-02-06T06:30:28.844Z,56.00
2019-02-06T06:31:28.810Z,64.00
2019-02-06T06:32:31.833Z,72.00
2019-02-06T06:33:28.733Z,84.00
2019-02-06T06:34:28.696Z,96.00
2019-02-06T06:35:28.660Z,112.00
2019-02-06T06:36:28.625Z,128.00
2019-02-06T06:37:28.588Z,148.00
2019-02-06T06:38:28.551Z,164.00
2019-02-06T06:39:28.514Z,184.00
2019-02-06T06:40:28.476Z,208.00
2019-02-06T06:41:28.440Z,228.00
2019-02-06T06:42:28.404Z,244.00
2019-02-06T06:43:28.373Z,268.00
2019-02-06T06:44:28.331Z,300.00
2019-02-06T06:45:28.293Z,332.00
2019-02-06T06:46:28.257Z,364.00
2019-02-06T06:47:28.221Z,396.00
2019-02-06T06:48:28.184Z,436.00
2019-02-06T06:49:28.147Z,472.00
2019-02-06T06:50:28.110Z,508.00
2019-02-06T06:51:28.075Z,544.00
2019-02-06T06:52:28.038Z,588.00
2019-02-06T06:53:28.001Z,636.00
2019-02-06T06:54:27.964Z,692.00
2019-02-06T06:55:27.927Z,756.00
2019-02-06T06:56:27.890Z,820.00
2019-02-06T06:57:27.853Z,884.00
2019-02-06T06:58:27.819Z,952.00
2019-02-06T06:59:27.803Z,1016.00
2019-02-06T07:00:27.743Z,1104.00
2019-02-06T07:01:27.710Z,1180.00
2019-02-06T07:02:27.669Z,1252.00
2019-02-06T07:03:27.642Z,1336.00
2019-02-06T07:04:27.597Z,1432.00
2019-02-06T07:05:27.560Z,1560.00
2019-02-06T07:06:27.524Z,1676.00
2019-02-06T07:07:27.488Z,1796.00
2019-02-06T07:08:27.450Z,1908.00
2019-02-06T07:09:27.420Z,2020.00
2019-02-06T07:10:27.385Z,2136.00
2019-02-06T07:11:27.340Z,2236.00
2019-02-06T07:12:27.303Z,2320.00
2019-02-06T07:13:27.266Z,2384.00
2019-02-06T07:14:27.230Z,2452.00
2019-02-06T07:15:27.193Z,2540.00
2019-02-06T07:16:27.156Z,2644.00
2019-02-06T07:17:27.123Z,2748.00
2019-02-06T07:18:27.084Z,2832.00
2019-02-06T07:19:27.047Z,2912.00
2019-02-06T07:20:27.032Z,2996.00
2019-02-06T07:21:26.974Z,3076.00
2019-02-06T07:22:26.939Z,3156.00
2019-02-06T07:23:26.902Z,3220.00
2019-02-06T07:24:26.866Z,3292.00
2019-02-06T07:25:26.830Z,3384.00
2019-02-06T07:26:26.792Z,3488.00
2019-02-06T07:27:26.757Z,3596.00
2019-02-06T07:28:26.719Z,3732.00
2019-02-06T07:29:26.686Z,3900.00
2019-02-06T07:30:26.647Z,4080.00
2019-02-06T07:31:26.610Z,4264.00
2019-02-06T07:32:26.573Z,4496.00
2019-02-06T07:33:26.538Z,4760.00
2019-02-06T07:34:26.501Z,4972.00
2019-02-06T07:35:26.468Z,5128.00
2019-02-06T07:36:26.430Z,5264.00
2019-02-06T07:37:26.393Z,5400.00
2019-02-06T07:38:26.358Z,5524.00
2019-02-06T07:39:26.322Z,5656.00
2019-02-06T07:40:26.286Z,5808.00
2019-02-06T07:41:26.252Z,5960.00
2019-02-06T07:42:26.214Z,6116.00
2019-02-06T07:43:26.178Z,6244.00
2019-02-06T07:44:26.143Z,6356.00
2019-02-06T07:45:26.105Z,6448.00
2019-02-06T07:46:26.078Z,6544.00
2019-02-06T07:47:26.045Z,6668.00
2019-02-06T07:48:26.000Z,6832.00
2019-02-06T07:49:25.963Z,7008.00
2019-02-06T07:50:25.927Z,7152.00
2019-02-06T07:51:25.891Z,7248.00
2019-02-06T07:52:25.857Z,7308.00
2019-02-06T07:53:25.819Z,7336.00
2019-02-06T07:54:25.879Z,7348.00
2019-02-06T07:55:25.748Z,7348.00
2019-02-06T07:56:25.713Z,7284.00
2019-02-06T07:57:25.677Z,7196.00
2019-02-06T07:58:25.643Z,7080.00
2019-02-06T07:59:25.609Z,6956.00
2019-02-06T08:00:25.571Z,6848.00
2019-02-06T08:01:25.536Z,6756.00
2019-02-06T08:02:25.499Z,6688.00
2019-02-06T08:03:25.464Z,6636.00
2019-02-06T08:04:25.575Z,6584.00
2019-02-06T08:05:25.396Z,6560.00
2019-02-06T08:06:25.359Z,6544.00
2019-02-06T08:07:25.322Z,6536.00
2019-02-06T08:08:35.649Z,6544.00
2019-02-06T08:09:25.305Z,6576.00
2019-02-06T08:10:25.220Z,6616.00
2019-02-06T08:11:25.181Z,6752.00
2019-02-06T08:12:25.145Z,7032.00
2019-02-06T08:13:25.109Z,7136.00
2019-02-06T08:14:25.075Z,7244.00
2019-02-06T08:15:25.038Z,7144.00
2019-02-06T08:16:25.001Z,7168.00
2019-02-06T08:17:24.966Z,7204.00
2019-02-06T08:18:24.933Z,7220.00
2019-02-06T08:19:24.896Z,7300.00
2019-02-06T08:20:24.861Z,7452.00
2019-02-06T08:21:24.825Z,7668.00
2019-02-06T08:22:24.794Z,7864.00
2019-02-06T08:23:24.754Z,7912.00
2019-02-06T08:24:24.718Z,8188.00
2019-02-06T08:25:24.687Z,8632.00
2019-02-06T08:26:24.648Z,9232.00
2019-02-06T08:27:26.450Z,9852.00
2019-02-06T08:28:24.578Z,10268.00
2019-02-06T08:29:24.543Z,10368.00
2019-02-06T08:30:24.508Z,10348.00
2019-02-06T08:31:24.471Z,10264.00
2019-02-06T08:32:24.435Z,10440.00
2019-02-06T08:33:24.401Z,10584.00
2019-02-06T08:34:24.368Z,11124.00
2019-02-06T08:35:24.335Z,10552.00
2019-02-06T08:36:24.297Z,11272.00
2019-02-06T08:37:24.262Z,11124.00
2019-02-06T08:38:24.227Z,10836.00
2019-02-06T08:39:24.194Z,10576.00
2019-02-06T08:40:24.158Z,10448.00
2019-02-06T08:41:24.123Z,10428.00
2019-02-06T08:42:24.090Z,10512.00
2019-02-06T08:43:24.054Z,10416.00
2019-02-06T08:44:24.020Z,10324.00
2019-02-06T08:45:23.990Z,10292.00
2019-02-06T08:46:23.951Z,10456.00
2019-02-06T08:47:23.916Z,10540.00
2019-02-06T08:48:23.881Z,10544.00
2019-02-06T08:49:23.847Z,10520.00
2019-02-06T08:50:23.814Z,10688.00
2019-02-06T08:51:23.778Z,11108.00
2019-02-06T08:52:23.742Z,11764.00
2019-02-06T08:53:23.708Z,12828.00
2019-02-06T08:54:23.675Z,15972.00
2019-02-06T08:55:23.640Z,16512.00
2019-02-06T08:56:23.604Z,17856.00
2019-02-06T08:57:23.570Z,13576.00
2019-02-06T08:58:23.537Z,13940.00
2019-02-06T08:59:23.501Z,13892.00
2019-02-06T09:00:23.467Z,13760.00
2019-02-06T09:01:23.434Z,13492.00
2019-02-06T09:02:23.398Z,17600.00
2019-02-06T09:03:23.365Z,14712.00
2019-02-06T09:04:23.335Z,15688.00
2019-02-06T09:05:23.295Z,16992.00
2019-02-06T09:06:23.262Z,17536.00
2019-02-06T09:07:23.228Z,17856.00
2019-02-06T09:08:23.191Z,18112.00
2019-02-06T09:09:23.160Z,18432.00
2019-02-06T09:10:23.125Z,19488.00
2019-02-06T09:11:23.092Z,20128.00
2019-02-06T09:12:23.056Z,26880.00
2019-02-06T09:13:23.022Z,20800.00
2019-02-06T09:14:22.989Z,17184.00
2019-02-06T09:15:22.955Z,16992.00
2019-02-06T09:16:22.931Z,17376.00
2019-02-06T09:17:22.887Z,16572.00
2019-02-06T09:18:22.854Z,23744.00
2019-02-06T09:19:22.820Z,16184.00
2019-02-06T09:20:22.788Z,15708.00
2019-02-06T09:21:22.751Z,18816.00
2019-02-06T09:22:22.719Z,15808.00
2019-02-06T09:23:22.712Z,15540.00
2019-02-06T09:24:22.684Z,15484.00
2019-02-06T09:25:22.617Z,15556.00
2019-02-06T09:26:22.627Z,16156.00
2019-02-06T09:27:22.551Z,19328.00
2019-02-06T09:28:22.518Z,16728.00
2019-02-06T09:29:22.485Z,20736.00
2019-02-06T09:30:22.452Z,17216.00
2019-02-06T09:31:22.456Z,16460.00
2019-02-06T09:32:22.383Z,16572.00
2019-02-06T09:33:22.351Z,17120.00
2019-02-06T09:34:22.346Z,17632.00
2019-02-06T09:35:22.283Z,18048.00
2019-02-06T09:36:22.249Z,18208.00
2019-02-06T09:37:22.215Z,18176.00
2019-02-06T09:38:22.183Z,18016.00
2019-02-06T09:39:22.151Z,17760.00
2019-02-06T09:40:22.116Z,17440.00
2019-02-06T09:41:22.083Z,17184.00
2019-02-06T09:42:22.048Z,16868.00
2019-02-06T09:43:22.015Z,16776.00
2019-02-06T09:44:21.981Z,16724.00
2019-02-06T09:45:21.947Z,16724.00
2019-02-06T09:46:21.912Z,16728.00
2019-02-06T09:47:21.880Z,16728.00
2019-02-06T09:48:21.842Z,16620.00
2019-02-06T09:49:21.810Z,16348.00
2019-02-06T09:50:21.806Z,15904.00
2019-02-06T09:51:21.744Z,15396.00
2019-02-06T09:52:21.708Z,14896.00
2019-02-06T09:53:21.675Z,14488.00
2019-02-06T09:54:21.641Z,14184.00
2019-02-06T09:55:21.608Z,14000.00
2019-02-06T09:56:21.573Z,13928.00
2019-02-06T09:57:21.542Z,13892.00
2019-02-06T09:58:21.507Z,13896.00
2019-02-06T09:59:21.474Z,13908.00
2019-02-06T10:00:21.437Z,13932.00
2019-02-06T10:01:21.716Z,13940.00
2019-02-06T10:02:21.371Z,13948.00
2019-02-06T10:03:21.336Z,13944.00
2019-02-06T10:04:21.303Z,13900.00
2019-02-06T10:05:21.268Z,13880.00
2019-02-06T10:06:21.235Z,13868.00
2019-02-06T10:07:21.201Z,13836.00
2019-02-06T10:08:21.167Z,13684.00
2019-02-06T10:09:22.945Z,13476.00
2019-02-06T10:10:21.099Z,13228.00
2019-02-06T10:11:21.066Z,12972.00
2019-02-06T10:12:21.032Z,12760.00
2019-02-06T10:13:20.997Z,12600.00
2019-02-06T10:14:20.974Z,12532.00
2019-02-06T10:15:20.929Z,12560.00
2019-02-06T10:16:20.895Z,12656.00
2019-02-06T10:17:20.861Z,12788.00
2019-02-06T10:18:20.828Z,12928.00
2019-02-06T10:19:20.795Z,13052.00
2019-02-06T10:20:20.759Z,13120.00
2019-02-06T10:21:20.731Z,13116.00
2019-02-06T10:22:20.692Z,13056.00
2019-02-06T10:23:20.659Z,12960.00
2019-02-06T10:24:20.625Z,12848.00
2019-02-06T10:25:20.590Z,12812.00
2019-02-06T10:26:20.558Z,12856.00
2019-02-06T10:27:20.524Z,12916.00
2019-02-06T10:28:20.489Z,12936.00
2019-02-06T10:29:20.456Z,12996.00
2019-02-06T10:30:20.420Z,13140.00
2019-02-06T10:31:20.388Z,13352.00
2019-02-06T10:32:20.352Z,13612.00
2019-02-06T10:33:20.352Z,13908.00
2019-02-06T10:34:20.347Z,14252.00
2019-02-06T10:35:20.252Z,14564.00
2019-02-06T10:36:20.219Z,14808.00
2019-02-06T10:37:20.182Z,14924.00
2019-02-06T10:38:20.150Z,14848.00
2019-02-06T10:39:20.122Z,14660.00
2019-02-06T10:40:20.080Z,14524.00
2019-02-06T10:41:20.047Z,14428.00
2019-02-06T10:42:20.013Z,14372.00
2019-02-06T10:43:31.305Z,14304.00
2019-02-06T10:44:19.945Z,14176.00
2019-02-06T10:45:21.035Z,14096.00
2019-02-06T10:46:19.883Z,14076.00
2019-02-06T10:47:19.845Z,14164.00
2019-02-06T10:48:19.811Z,14352.00
2019-02-06T10:49:19.777Z,14720.00
2019-02-06T10:50:19.745Z,15196.00
2019-02-06T10:51:19.710Z,15816.00
2019-02-06T10:52:19.677Z,16532.00
2019-02-06T10:53:19.642Z,17472.00
2019-02-06T10:54:19.607Z,18208.00
2019-02-06T10:55:19.575Z,18880.00
2019-02-06T10:56:19.540Z,19616.00
2019-02-06T10:57:19.506Z,20224.00
2019-02-06T10:58:19.472Z,20704.00
2019-02-06T10:59:19.443Z,21152.00
2019-02-06T11:00:19.406Z,21504.00
2019-02-06T11:01:19.371Z,21632.00
2019-02-06T11:02:19.339Z,21600.00
2019-02-06T11:03:19.308Z,21376.00
2019-02-06T11:04:19.271Z,20992.00
2019-02-06T11:05:19.237Z,20704.00
2019-02-06T11:06:19.205Z,20576.00
2019-02-06T11:07:19.172Z,20608.00
2019-02-06T11:08:19.139Z,20480.00
2019-02-06T11:09:19.104Z,20416.00
2019-02-06T11:10:19.072Z,20352.00
2019-02-06T11:11:19.042Z,20224.00
2019-02-06T11:12:19.004Z,20096.00
2019-02-06T11:13:18.970Z,19936.00
2019-02-06T11:14:18.939Z,19776.00
2019-02-06T11:15:18.904Z,19648.00
2019-02-06T11:16:18.870Z,19456.00
2019-02-06T11:17:18.837Z,19456.00
2019-02-06T11:18:18.806Z,19584.00
2019-02-06T11:19:18.773Z,19456.00
2019-02-06T11:20:18.738Z,19360.00
2019-02-06T11:21:18.704Z,19264.00
2019-02-06T11:22:18.671Z,19296.00
2019-02-06T11:23:18.638Z,19360.00
2019-02-06T11:24:18.604Z,19488.00
2019-02-06T11:25:18.572Z,19744.00
2019-02-06T11:26:18.539Z,20032.00
2019-02-06T11:27:18.507Z,20320.00
2019-02-06T11:28:18.472Z,20640.00
2019-02-06T11:29:18.438Z,20896.00
2019-02-06T11:30:18.408Z,21344.00
2019-02-06T11:31:18.375Z,21536.00
2019-02-06T11:32:18.341Z,21920.00
2019-02-06T11:33:18.305Z,21728.00
2019-02-06T11:34:18.273Z,21344.00
2019-02-06T11:35:18.240Z,20736.00
2019-02-06T11:36:24.286Z,20384.00
2019-02-06T11:37:18.173Z,20384.00
2019-02-06T11:38:18.140Z,19936.00
2019-02-06T11:39:18.106Z,19520.00
2019-02-06T11:40:18.075Z,19104.00
2019-02-06T11:41:18.046Z,19008.00
2019-02-06T11:42:18.012Z,19168.00
2019-02-06T11:43:17.974Z,19232.00
2019-02-06T11:44:17.942Z,19584.00
2019-02-06T11:45:17.909Z,20320.00
2019-02-06T11:46:17.875Z,20832.00
2019-02-06T11:47:17.842Z,22272.00
2019-02-06T11:48:17.809Z,22368.00
2019-02-06T11:49:17.775Z,21248.00
2019-02-06T11:50:17.743Z,20800.00
2019-02-06T11:51:17.711Z,22016.00
2019-02-06T11:52:17.676Z,21216.00
2019-02-06T11:53:17.646Z,20512.00
2019-02-06T11:54:17.611Z,20576.00
2019-02-06T11:55:17.580Z,21856.00
2019-02-06T11:56:17.549Z,21184.00
2019-02-06T11:57:17.514Z,22944.00
2019-02-06T11:58:17.480Z,22176.00
2019-02-06T11:59:17.447Z,19136.00
2019-02-06T12:00:17.413Z,21888.00
2019-02-06T12:01:17.380Z,22560.00
2019-02-06T12:02:17.347Z,22208.00
2019-02-06T12:03:17.315Z,22112.00
2019-02-06T12:04:17.281Z,18368.00
2019-02-06T12:05:17.249Z,18656.00
2019-02-06T12:06:17.217Z,19296.00
2019-02-06T12:07:17.185Z,20096.00
2019-02-06T12:08:17.151Z,19872.00
2019-02-06T12:09:17.119Z,20672.00
2019-02-06T12:10:17.092Z,19840.00
2019-02-06T12:11:17.052Z,20032.00
2019-02-06T12:12:17.019Z,20032.00
2019-02-06T12:13:16.987Z,20128.00
2019-02-06T12:14:16.956Z,20736.00
2019-02-06T12:15:16.922Z,20384.00
2019-02-06T12:16:16.913Z,20480.00
2019-02-06T12:17:16.855Z,21088.00
2019-02-06T12:18:16.823Z,21344.00
2019-02-06T12:19:16.790Z,21344.00
2019-02-06T12:20:16.759Z,21664.00
2019-02-06T12:21:18.082Z,22560.00
2019-02-06T12:22:16.692Z,22784.00
2019-02-06T12:23:16.663Z,24448.00
2019-02-06T12:24:16.628Z,25280.00
2019-02-06T12:25:16.595Z,24704.00
2019-02-06T12:26:16.563Z,25664.00
2019-02-06T12:27:16.532Z,27072.00
2019-02-06T12:28:16.499Z,28256.00
2019-02-06T12:29:16.467Z,29696.00
2019-02-06T12:30:16.437Z,30848.00
2019-02-06T12:31:16.403Z,23008.00
2019-02-06T12:32:16.383Z,21536.00
2019-02-06T12:33:16.337Z,20864.00
2019-02-06T12:34:16.308Z,20512.00